Airfield :
LOGIN :

Register | Disclaimer

   EN    FR    IT 

 










Legend :    VFR   Marginal VFR   IFR   Intensive IFR   Very Intensive IFR
Visi :
Ceiling :
>= 8 km
>= 3000ft
5 to 8 km
1000 to 3000 ft
1500m to 5 km
500 to 1000 ft
800 to 1500m
200 to 500 ft
< 800m
< 200 ft
Symbols :   Thunderstorms  Fog  Heavy snow  Heavy precipitations  Wind > 20 kt
SIGMETs :     Misc.  Thunderstorms  Icing  Turbulence  Mountain Waves  Volcanic Ashes






- Airport Elevation : 1548 ft


LKNA - Náměšť Air Base

CURRENT METAR :
  • 282130Z 33008KT 6000 BKN007 OVC022 05/04 Q1021 RMK GRN

EXPIRED METARs :
  • 282100Z 32007KT 5000 BR BKN007 OVC022 05/04 Q1021 RMK GRN
  • 282030Z 31007KT 5000 BR BKN005 OVC020 05/04 Q1021 RMK YLO
  • 282000Z 32006KT 6000 SCT006 OVC021 05/04 Q1021 NOSIG RMK WHT WHT
  • 281930Z 33007KT 7000 OVC021 05/04 Q1020 NOSIG RMK WHT WHT
  • 281900Z 34007KT 6000 FEW008 OVC021 06/04 Q1020 NOSIG RMK WHT WHT
  • 281830Z 33007KT 6000 OVC021 06/04 Q1020 NOSIG RMK WHT WHT
  • 281800Z 33007KT 6000 OVC021 06/04 Q1020 NOSIG RMK WHT WHT
  • 281730Z 33008KT 7000 SCT007 OVC019 06/04 Q1020 NOSIG RMK WHT WHT
  • 281700Z 32009KT 7000 BKN007 OVC018 06/04 Q1020 NOSIG RMK GRN GRN

TAF TAF LKNA
Valid from the 28 at 18:00 until the 29 at 18:00 UTC


281700Z 2818/2918 32007KT 6000 OVC007
TEMPO 2818/2900 9999 SCT008 BKN012
TEMPO 2900/2908 05005KT 1500 BR BKN003
PROB30
TEMPO 2902/2907 0500 FG OVC002
BECMG 2910/2912 14012KT 9999 SCT030



MET'MAP, your aeronautical weather chart ! - Copyright ORBIFLY December 2007 - Disclaimer

ORBIFLY MET'MAP TEAM :

Programming & Development : Alexandra Zaïnal
Original concept : Baudouin d'Aumeries
Technical & hardware support : Manuel Goepfert
Assistance : Marc-Olivier Méhu




SOURCES & CREDITS :

   NOAA